Terminal Aerodrome Forecast
Issued by NWS Tuscon, AZ

Home | Current Version | Previous Version | Text Only | Print | Product List | Glossary On
Versions: 1 2 3 4 5 6 7 8 9 10 11 12
273
FTUS45 KTWC 031738
TAFDUG
TAF
KDUG 031738Z 0318/0418 VRB03KT P6SM SKC
     FM032000 28009KT P6SM SKC
     FM040200 02008KT P6SM SKC
     FM041000 09014G22KT P6SM SKC=

USA.gov is the U.S. government's official web portal to all federal, state and local government web resources and services.